Time;durP1;ratioP1;P1;durP2;ratioP2;P2;SDS_P1;SDS_P2;PMS_P1;PMS_P2;Temp;Humidity;BMP_temperature;BMP_pressure;BME280_temperature;BME280_humidity;BME280_pressure;Samples;Min_cycle;Max_cycle;Signal;HPM_P1;HPM_P2
2023/06/29 00:00:57;;;;;;;22.10;11.93;;;;;;;-146.27;81.08;81018.44;5049747;28;20104;-69
2023/06/29 00:03:22;;;;;;;22.15;11.95;;;;;;;-146.27;81.14;80994.34;5044257;28;20167;-69
2023/06/29 00:05:48;;;;;;;24.30;11.85;;;;;;;-146.27;81.61;80994.34;5050427;28;20034;-69
2023/06/29 00:08:13;;;;;;;16.90;11.07;;;;;;;-146.27;81.49;81002.38;5049148;28;20467;-69
2023/06/29 00:10:39;;;;;;;21.13;12.82;;;;;;;-146.27;81.65;81010.41;5049090;28;20324;-68
2023/06/29 00:13:04;;;;;;;22.00;12.23;;;;;;;-146.27;81.95;81082.69;5048292;28;20029;-68
2023/06/29 00:15:30;;;;;;;23.08;11.13;;;;;;;-146.27;82.52;81044.53;5047407;28;20030;-69
2023/06/29 00:17:57;;;;;;;20.25;12.02;;;;;;;-146.27;82.25;81090.72;5048724;28;20480;-68
2023/06/29 00:20:24;;;;;;;29.42;12.07;;;;;;;-146.27;82.63;81046.53;5048802;28;20025;-69
2023/06/29 00:22:49;;;;;;;28.77;12.05;;;;;;;-146.27;83.33;81114.81;5049476;28;20025;-69
2023/06/29 00:25:16;;;;;;;20.35;11.48;;;;;;;-146.27;83.58;81098.75;5050303;28;20016;-69
2023/06/29 00:27:42;;;;;;;20.58;12.02;;;;;;;-146.27;83.36;81142.94;5048513;28;20526;-69
2023/06/29 00:30:07;;;;;;;21.38;12.63;;;;;;;-146.27;83.58;81082.69;5049485;28;20037;-70
2023/06/29 00:32:33;;;;;;;20.30;12.32;;;;;;;-146.27;83.68;81130.88;5030725;28;20032;-70
2023/06/29 00:34:58;;;;;;;20.20;11.60;;;;;;;-146.27;83.95;81078.69;5046801;28;20477;-70
2023/06/29 00:37:24;;;;;;;24.45;12.43;;;;;;;-146.27;83.76;81062.59;5046027;28;20029;-69
2023/06/29 00:39:50;;;;;;;20.02;11.63;;;;;;;-146.27;84.04;81104.78;5048020;28;20024;-69
2023/06/29 00:42:15;;;;;;;20.15;13.15;;;;;;;-146.27;84.05;81114.81;5049066;28;20032;-69
2023/06/29 00:44:40;;;;;;;19.60;11.48;;;;;;;-146.27;84.33;81108.81;5048921;28;20025;-70
2023/06/29 00:47:07;;;;;;;25.90;12.38;;;;;;;-146.27;84.53;81189.13;5047641;28;20048;-70
2023/06/29 00:49:33;;;;;;;23.23;12.82;;;;;;;-146.27;84.75;81122.84;5031064;28;20025;-70
2023/06/29 00:51:59;;;;;;;20.17;11.18;;;;;;;-146.27;84.68;81100.75;5047804;28;20024;-70
2023/06/29 00:54:24;;;;;;;22.92;12.20;;;;;;;-146.27;85.06;81159.00;5047796;28;20576;-69
2023/06/29 00:56:50;;;;;;;24.58;11.88;;;;;;;-146.27;85.29;81134.91;5047969;28;20140;-69
2023/06/29 00:59:16;;;;;;;20.67;12.75;;;;;;;-146.27;85.10;81144.94;5053637;28;20123;-70
2023/06/29 01:01:43;;;;;;;23.10;12.82;;;;;;;-146.27;85.32;81126.88;5048879;28;20480;-70
2023/06/29 01:04:09;;;;;;;24.60;13.55;;;;;;;-146.27;85.62;81134.91;5046330;28;20511;-70
2023/06/29 01:06:44;;;;;;;24.13;12.70;;;;;;;-146.27;85.91;81150.97;5042493;28;20037;-70
2023/06/29 01:09:11;;;;;;;26.45;12.60;;;;;;;-146.27;85.71;81155.00;5049735;28;20025;-71
2023/06/29 01:11:37;;;;;;;24.20;12.68;;;;;;;-146.27;86.20;81181.09;5049649;28;20024;-70
2023/06/29 01:14:05;;;;;;;25.90;12.48;;;;;;;-146.27;86.26;81171.06;5048708;28;20115;-70
2023/06/29 01:16:34;;;;;;;21.13;12.38;;;;;;;-146.27;85.85;81175.06;5049656;28;20021;-70
2023/06/29 01:19:04;;;;;;;24.17;12.70;;;;;;;-146.27;86.18;81167.03;5062182;28;20028;-70
2023/06/29 01:21:31;;;;;;;28.08;13.05;;;;;;;-146.27;86.43;81179.09;5049847;28;20140;-70
2023/06/29 01:23:59;;;;;;;23.45;13.38;;;;;;;-146.27;86.92;81150.97;5047858;28;20051;-70
2023/06/29 01:26:25;;;;;;;29.23;12.98;;;;;;;-146.27;86.86;81181.09;5049286;28;20074;-70
2023/06/29 01:28:50;;;;;;;25.98;13.85;;;;;;;-146.27;86.97;81191.13;5061155;28;20036;-70
2023/06/29 01:31:16;;;;;;;24.27;13.43;;;;;;;-146.27;86.87;81138.91;5047238;28;20060;-70
2023/06/29 01:33:42;;;;;;;23.88;13.30;;;;;;;-146.27;87.08;81169.03;5042466;28;20028;-70
2023/06/29 01:36:14;;;;;;;27.80;14.50;;;;;;;-146.27;87.26;81179.09;5031478;28;20516;-70
2023/06/29 01:38:50;;;;;;;24.98;14.10;;;;;;;-146.27;87.46;81199.16;5048901;28;20234;-70
2023/06/29 01:41:17;;;;;;;25.77;13.95;;;;;;;-146.27;87.56;81187.13;5048630;28;20025;-70
2023/06/29 01:43:44;;;;;;;26.38;13.63;;;;;;;-146.27;88.11;81161.00;5046795;28;20033;-70
2023/06/29 01:46:10;;;;;;;22.02;12.98;;;;;;;-146.27;88.40;81203.19;5048303;28;20029;-70
2023/06/29 01:48:37;;;;;;;23.92;13.75;;;;;;;-146.27;88.76;81199.16;5048163;28;20033;-70
2023/06/29 01:51:03;;;;;;;30.35;13.88;;;;;;;-146.27;88.54;81155.00;5047530;28;20069;-70
2023/06/29 01:53:28;;;;;;;29.88;14.05;;;;;;;-146.27;88.72;81171.06;5046062;28;20037;-69
2023/06/29 01:55:54;;;;;;;25.80;13.82;;;;;;;-146.27;88.56;81195.16;5028366;28;20033;-70
2023/06/29 01:58:19;;;;;;;28.30;14.48;;;;;;;-146.27;89.24;81171.06;5049621;28;20055;-69
2023/06/29 02:00:45;;;;;;;26.42;13.70;;;;;;;-146.27;89.62;81165.03;5051572;28;20025;-71
2023/06/29 02:03:10;;;;;;;23.58;14.32;;;;;;;-146.27;89.95;81223.25;5032588;28;20029;-70
2023/06/29 02:05:36;;;;;;;22.73;14.18;;;;;;;-146.27;89.98;81231.31;5060511;28;20437;-70
2023/06/29 02:08:01;;;;;;;30.73;14.38;;;;;;;-146.27;90.48;81221.25;5052192;28;20108;-70
2023/06/29 02:10:26;;;;;;;23.27;14.45;;;;;;;-146.27;90.05;81227.28;5051795;28;20491;-70
2023/06/29 02:12:52;;;;;;;26.95;14.50;;;;;;;-146.27;90.33;81233.31;5050627;28;20499;-70
2023/06/29 02:15:17;;;;;;;26.00;14.13;;;;;;;-146.27;90.40;81183.09;5051882;28;20029;-70
2023/06/29 02:17:43;;;;;;;26.77;14.68;;;;;;;-146.27;89.99;81239.34;5050661;28;20029;-70
2023/06/29 02:20:11;;;;;;;31.60;15.65;;;;;;;-146.27;90.67;81165.03;5052815;28;20033;-70
2023/06/29 02:22:36;;;;;;;22.00;14.35;;;;;;;-146.27;90.74;81227.28;5052867;28;20115;-70
2023/06/29 02:25:02;;;;;;;29.23;15.32;;;;;;;-146.27;90.44;81219.25;5052682;28;20120;-71
2023/06/29 02:27:27;;;;;;;27.40;15.73;;;;;;;-146.27;90.57;81247.38;5049666;28;20036;-70
2023/06/29 02:29:53;;;;;;;25.08;14.95;;;;;;;-146.27;90.80;81211.22;5053526;28;20025;-70
2023/06/29 02:32:18;;;;;;;25.95;15.65;;;;;;;-146.27;90.77;81247.38;5051692;28;20028;-68
2023/06/29 02:34:43;;;;;;;31.05;15.02;;;;;;;-146.27;90.84;81229.28;5051818;28;20033;-69
2023/06/29 02:37:09;;;;;;;24.88;14.65;;;;;;;-146.27;90.61;81247.38;5050593;28;20033;-71
2023/06/29 02:39:34;;;;;;;25.73;14.60;;;;;;;-146.27;90.39;81219.25;5048883;28;20032;-69
2023/06/29 02:42:00;;;;;;;32.70;16.85;;;;;;;-146.27;90.26;81225.28;5049821;28;20033;-70
2023/06/29 02:44:25;;;;;;;27.00;15.93;;;;;;;-146.27;90.53;81251.38;5050880;28;20020;-71
2023/06/29 02:46:50;;;;;;;30.38;16.45;;;;;;;-146.27;90.58;81235.31;5052052;28;20480;-69
2023/06/29 02:49:16;;;;;;;33.60;16.52;;;;;;;-146.27;90.87;81259.41;5048535;28;20052;-70
2023/06/29 02:51:41;;;;;;;31.95;17.17;;;;;;;-146.27;90.87;81249.38;5048663;28;20476;-71
2023/06/29 02:54:07;;;;;;;29.73;16.15;;;;;;;-146.27;90.89;81237.31;5033574;28;20028;-70
2023/06/29 02:56:32;;;;;;;29.58;16.73;;;;;;;-146.27;91.29;81249.38;5048934;28;20051;-70
2023/06/29 02:58:57;;;;;;;35.15;17.98;;;;;;;-146.27;91.04;81259.41;5032149;28;20052;-70
2023/06/29 03:01:23;;;;;;;32.17;17.15;;;;;;;-146.27;91.57;81271.47;5050063;28;20400;-70
2023/06/29 03:03:48;;;;;;;36.17;17.23;;;;;;;-146.27;91.45;81219.25;5052039;28;20052;-69
2023/06/29 03:06:13;;;;;;;32.00;17.08;;;;;;;-146.27;90.96;81277.50;5050722;28;20021;-70
2023/06/29 03:08:39;;;;;;;32.05;17.45;;;;;;;-146.27;91.15;81233.31;5043032;28;20026;-70
2023/06/29 03:11:04;;;;;;;31.05;17.92;;;;;;;-146.27;91.22;81259.41;5050130;28;20021;-70
2023/06/29 03:13:29;;;;;;;33.92;18.15;;;;;;;-146.27;91.22;81277.50;5050488;28;20032;-70
2023/06/29 03:15:59;;;;;;;34.45;16.65;;;;;;;-146.27;91.57;81243.34;5050670;28;20040;-70
2023/06/29 03:18:24;;;;;;;33.15;19.00;;;;;;;-146.27;91.58;81275.47;5048655;28;20032;-70
2023/06/29 03:20:50;;;;;;;31.23;17.55;;;;;;;-146.27;91.50;81247.38;5049629;28;20040;-70
2023/06/29 03:23:15;;;;;;;32.55;19.15;;;;;;;-146.27;90.90;81273.47;5051409;28;20109;-70
2023/06/29 03:25:40;;;;;;;35.15;18.73;;;;;;;-146.27;90.94;81243.34;5050249;28;20145;-69
2023/06/29 03:28:06;;;;;;;29.10;16.30;;;;;;;-146.27;91.10;81207.19;5050749;28;20048;-69
2023/06/29 03:30:31;;;;;;;33.92;18.38;;;;;;;-146.27;91.08;81263.44;5050467;28;20265;-68
2023/06/29 03:32:58;;;;;;;29.17;17.40;;;;;;;-146.27;91.07;81271.47;5050820;28;20029;-68
2023/06/29 03:35:24;;;;;;;36.15;19.05;;;;;;;-146.27;91.10;81271.47;5036907;28;20115;-70
2023/06/29 03:37:49;;;;;;;34.88;18.67;;;;;;;-146.27;91.18;81275.47;5045076;28;20499;-70
2023/06/29 03:40:16;;;;;;;32.22;17.75;;;;;;;-146.27;91.07;81253.38;5052063;28;20037;-70
2023/06/29 03:42:41;;;;;;;32.85;18.45;;;;;;;-146.27;91.07;81259.41;5045862;28;20377;-70
2023/06/29 03:45:07;;;;;;;38.60;19.80;;;;;;;-146.27;90.77;81251.38;5050042;28;20024;-69
2023/06/29 03:47:32;;;;;;;34.53;19.08;;;;;;;-146.27;91.33;81263.44;5049264;28;20040;-69
2023/06/29 03:49:58;;;;;;;33.08;18.27;;;;;;;-146.27;91.63;81271.47;5033013;28;20439;-69
2023/06/29 03:52:23;;;;;;;37.65;18.52;;;;;;;-146.27;91.55;81295.56;5050733;28;20583;-69
2023/06/29 03:54:49;;;;;;;35.03;19.25;;;;;;;-146.27;90.94;81265.44;5051407;28;20029;-69
2023/06/29 03:57:15;;;;;;;35.92;18.58;;;;;;;-146.27;91.23;81279.50;5050029;28;20032;-70
2023/06/29 03:59:41;;;;;;;31.85;18.52;;;;;;;-146.27;91.42;81315.66;5050502;28;20508;-69
2023/06/29 04:02:06;;;;;;;37.78;19.83;;;;;;;-146.27;91.32;81313.63;5050789;28;20067;-69
2023/06/29 04:04:31;;;;;;;32.05;17.90;;;;;;;-146.27;90.93;81287.53;5050752;28;20025;-68
2023/06/29 04:06:57;;;;;;;33.72;17.55;;;;;;;-146.27;90.88;81273.47;5050361;28;20456;-69
2023/06/29 04:09:22;;;;;;;33.72;17.83;;;;;;;-146.27;90.01;81287.53;5048126;28;20428;-68
2023/06/29 04:11:47;;;;;;;29.95;16.60;;;;;;;-146.27;89.16;81307.63;5049968;28;20037;-71
2023/06/29 04:14:13;;;;;;;27.42;15.82;;;;;;;-146.27;89.04;81337.75;5047033;28;20156;-69
2023/06/29 04:16:38;;;;;;;35.70;16.95;;;;;;;-146.27;88.62;81343.75;5050524;28;20017;-69
2023/06/29 04:19:04;;;;;;;29.25;15.35;;;;;;;-146.27;88.20;81347.78;5030360;28;20097;-70
2023/06/29 04:21:29;;;;;;;26.92;15.02;;;;;;;-146.27;87.81;81345.78;5053253;28;20028;-71
2023/06/29 04:23:54;;;;;;;31.13;15.15;;;;;;;-146.27;87.38;81283.50;5047958;28;20026;-70
2023/06/29 04:26:27;;;;;;;28.30;16.00;;;;;;;-146.27;87.25;81339.75;5048290;28;20474;-70
2023/06/29 04:28:59;;;;;;;24.92;14.63;;;;;;;-146.27;87.63;81367.88;5049298;28;20379;-70
2023/06/29 04:31:26;;;;;;;29.70;15.90;;;;;;;-146.27;87.11;81371.88;5043872;28;20028;-70
2023/06/29 04:33:52;;;;;;;25.80;14.55;;;;;;;-146.27;86.78;81351.78;5042545;28;20112;-70
2023/06/29 04:36:17;;;;;;;24.88;14.95;;;;;;;-146.27;86.80;81341.75;5049663;28;20020;-70
2023/06/29 04:38:43;;;;;;;22.65;14.10;;;;;;;-146.27;86.70;81367.88;5048195;28;20102;-71
2023/06/29 04:41:09;;;;;;;25.73;13.93;;;;;;;-146.27;86.41;81363.84;5049586;28;20064;-70
2023/06/29 04:43:36;;;;;;;28.80;15.75;;;;;;;-146.27;86.64;81383.94;5048452;28;20032;-70
2023/06/29 04:46:01;;;;;;;25.98;15.00;;;;;;;-146.27;86.43;81347.78;5041670;28;20048;-70
2023/06/29 04:48:36;;;;;;;34.78;15.60;;;;;;;-146.27;86.35;81363.84;5046754;28;20063;-70
2023/06/29 04:51:05;;;;;;;26.27;13.95;;;;;;;-146.27;86.59;81343.75;5049037;28;20040;-70
2023/06/29 04:53:34;;;;;;;28.33;14.50;;;;;;;-146.27;86.48;81339.75;5049068;28;20136;-70
2023/06/29 04:56:01;;;;;;;27.15;14.63;;;;;;;-146.27;86.54;81335.72;5047933;28;20029;-70
2023/06/29 04:58:27;;;;;;;27.38;15.07;;;;;;;-146.27;86.89;81367.88;5048794;28;20044;-69
2023/06/29 05:00:56;;;;;;;26.25;14.38;;;;;;;-146.27;86.97;81349.78;5048465;28;20461;-70
2023/06/29 05:03:22;;;;;;;26.70;14.65;;;;;;;-146.27;87.03;81371.88;5047765;28;20080;-70
2023/06/29 05:05:47;;;;;;;25.33;13.73;;;;;;;-146.27;86.95;81367.88;5048439;28;20491;-70
2023/06/29 05:08:13;;;;;;;23.70;15.07;;;;;;;-146.27;87.18;81343.75;5031378;28;20036;-69
2023/06/29 05:10:39;;;;;;;25.40;15.82;;;;;;;-146.27;87.10;81357.81;5049249;28;20048;-69
2023/06/29 05:13:04;;;;;;;26.90;14.65;;;;;;;-146.27;86.83;81357.81;5045732;28;20052;-69
2023/06/29 05:15:30;;;;;;;31.08;17.55;;;;;;;-146.27;86.54;81373.88;5047975;28;20025;-69
2023/06/29 05:17:55;;;;;;;26.35;15.73;;;;;;;-146.27;86.55;81331.72;5049994;28;20033;-69
2023/06/29 05:20:21;;;;;;;30.02;17.55;;;;;;;-146.27;86.54;81319.66;5048479;28;20021;-70
2023/06/29 05:22:46;;;;;;;29.40;16.33;;;;;;;-146.27;86.62;81393.97;5043412;28;20088;-69
2023/06/29 05:25:12;;;;;;;32.65;17.05;;;;;;;-146.27;86.47;81361.84;5049097;28;20028;-70
2023/06/29 05:27:37;;;;;;;24.75;16.13;;;;;;;-146.27;86.16;81333.72;5046195;28;20041;-69
2023/06/29 05:30:03;;;;;;;37.70;18.88;;;;;;;-146.27;87.05;81397.97;5043463;28;20482;-69
2023/06/29 05:32:28;;;;;;;31.00;18.70;;;;;;;-146.27;87.46;81434.13;5047135;28;20056;-71
2023/06/29 05:34:54;;;;;;;32.42;18.58;;;;;;;-146.27;87.35;81416.06;5047183;28;20064;-69
2023/06/29 05:37:20;;;;;;;32.20;19.10;;;;;;;-146.27;87.47;81371.88;5046613;28;20090;-69
2023/06/29 05:39:46;;;;;;;28.83;17.88;;;;;;;-146.27;87.45;81367.88;5048025;28;20025;-70
2023/06/29 05:42:11;;;;;;;35.78;18.38;;;;;;;-146.27;87.31;81369.88;5047716;28;20037;-69
2023/06/29 05:44:36;;;;;;;35.88;18.30;;;;;;;-146.27;87.35;81371.88;5047635;28;20040;-69
2023/06/29 05:47:02;;;;;;;43.63;20.20;;;;;;;-146.27;87.56;81375.91;5048205;28;20112;-71
2023/06/29 05:49:27;;;;;;;36.50;19.90;;;;;;;-146.27;87.78;81379.91;5049115;28;20127;-70
2023/06/29 05:51:53;;;;;;;35.60;20.80;;;;;;;-146.27;87.78;81375.91;5049743;28;20029;-70
2023/06/29 05:54:18;;;;;;;39.47;21.42;;;;;;;-146.27;87.49;81363.84;5048271;28;20037;-71
2023/06/29 05:56:44;;;;;;;35.17;21.05;;;;;;;-146.27;87.74;81383.94;5049109;28;20406;-71
2023/06/29 05:59:09;;;;;;;37.53;20.60;;;;;;;-146.27;87.99;81436.16;5047905;28;20115;-71
2023/06/29 06:01:35;;;;;;;43.65;22.30;;;;;;;-146.27;88.23;81395.97;5042988;28;20151;-72
2023/06/29 06:04:02;;;;;;;48.53;23.65;;;;;;;-146.27;89.29;81450.19;5044819;28;20021;-70
2023/06/29 06:06:30;;;;;;;46.75;23.17;;;;;;;-146.27;89.30;81444.19;5045065;28;20053;-71
2023/06/29 06:08:56;;;;;;;39.65;21.15;;;;;;;-146.27;88.72;81347.78;5047914;28;20033;-72
2023/06/29 06:11:22;;;;;;;47.67;23.65;;;;;;;-146.27;88.62;81408.03;5045511;28;20033;-70
2023/06/29 06:13:47;;;;;;;42.55;22.73;;;;;;;-146.27;88.52;81369.88;5039553;28;20064;-71
2023/06/29 06:16:13;;;;;;;49.28;23.33;;;;;;;-146.27;88.78;81408.03;5021531;28;20473;-70
2023/06/29 06:18:39;;;;;;;44.17;22.83;;;;;;;-146.27;89.26;81420.06;5047659;28;20120;-71
2023/06/29 06:21:04;;;;;;;41.15;23.65;;;;;;;-146.27;89.62;81448.19;5047065;28;21099;-70
2023/06/29 06:23:30;;;;;;;46.03;23.27;;;;;;;-146.27;89.45;81408.03;5048567;28;20104;-71
2023/06/29 06:25:55;;;;;;;46.65;24.92;;;;;;;-146.27;89.31;81414.06;5047461;28;20487;-70
2023/06/29 06:28:21;;;;;;;44.33;22.95;;;;;;;-146.27;89.27;81367.88;5047717;28;20052;-72
2023/06/29 06:30:47;;;;;;;50.72;24.63;;;;;;;-146.27;89.49;81373.88;5047830;28;20060;-71
2023/06/29 06:33:14;;;;;;;45.20;24.05;;;;;;;-146.27;89.46;81391.97;5048842;28;20681;-70
2023/06/29 06:35:40;;;;;;;44.95;23.40;;;;;;;-146.27;89.29;81397.97;5048251;28;20032;-72
2023/06/29 06:38:05;;;;;;;48.90;24.50;;;;;;;-146.27;89.44;81375.91;5043757;28;20154;-70
2023/06/29 06:40:30;;;;;;;44.95;23.02;;;;;;;-146.27;88.75;81315.66;5047591;28;20078;-69
2023/06/29 06:42:56;;;;;;;51.97;25.60;;;;;;;-146.27;89.07;81379.91;5047661;28;20506;-70
2023/06/29 06:45:21;;;;;;;46.25;25.33;;;;;;;-146.27;89.42;81379.91;5051361;28;20021;-70
2023/06/29 06:47:46;;;;;;;51.63;26.63;;;;;;;-146.27;89.72;81404.00;5049973;28;20237;-70
2023/06/29 06:50:12;;;;;;;47.90;26.70;;;;;;;-146.27;89.31;81359.81;5052208;28;20491;-68
2023/06/29 06:52:37;;;;;;;50.33;25.50;;;;;;;-146.27;89.22;81337.75;5050158;28;20492;-70
2023/06/29 06:55:04;;;;;;;51.70;27.13;;;;;;;-146.27;89.40;81375.91;5051171;28;20021;-69
2023/06/29 06:57:29;;;;;;;55.95;26.65;;;;;;;-146.27;89.35;81381.91;5051250;28;20033;-68
2023/06/29 06:59:55;;;;;;;53.53;27.38;;;;;;;-146.27;89.21;81355.81;5050967;28;20063;-68
2023/06/29 07:02:21;;;;;;;49.90;25.80;;;;;;;-146.27;88.97;81319.66;5052468;28;20499;-68
2023/06/29 07:04:47;;;;;;;48.80;24.63;;;;;;;-146.27;88.68;81301.59;5050737;28;20397;-68
2023/06/29 07:07:12;;;;;;;46.42;23.77;;;;;;;-146.27;88.90;81335.72;5048752;28;20027;-69
2023/06/29 07:09:38;;;;;;;48.15;25.55;;;;;;;-146.27;88.82;81257.41;5042672;28;20559;-68
2023/06/29 07:12:04;;;;;;;45.80;24.60;;;;;;;-146.27;88.67;81257.41;5046519;28;20075;-68
2023/06/29 07:14:31;;;;;;;45.35;22.88;;;;;;;-146.27;88.54;81251.38;5052086;28;20040;-68
2023/06/29 07:16:57;;;;;;;42.47;23.02;;;;;;;-146.27;88.24;81227.28;5051649;28;20031;-68
2023/06/29 07:19:22;;;;;;;44.00;22.88;;;;;;;-146.27;88.10;81221.25;5051199;28;20041;-69
2023/06/29 07:21:48;;;;;;;42.60;22.25;;;;;;;-146.27;88.51;81207.19;5049511;28;20040;-69
2023/06/29 07:24:13;;;;;;;39.83;21.45;;;;;;;-146.27;88.09;81201.19;5047031;28;20033;-69
2023/06/29 07:26:39;;;;;;;39.42;21.75;;;;;;;-146.27;88.56;81235.31;5044147;28;20112;-69
2023/06/29 07:29:05;;;;;;;34.38;21.63;;;;;;;-146.27;88.48;81219.25;5048429;28;20034;-71
2023/06/29 07:31:31;;;;;;;42.75;21.33;;;;;;;-146.27;88.67;81213.22;5049432;28;20108;-69
2023/06/29 07:33:57;;;;;;;38.08;22.10;;;;;;;-146.27;88.84;81189.13;5051933;28;20104;-69
2023/06/29 07:36:25;;;;;;;38.80;22.73;;;;;;;-146.27;88.51;81171.06;5047336;28;20029;-70
2023/06/29 07:38:51;;;;;;;36.05;21.23;;;;;;;-146.27;89.18;81191.13;5050797;28;20032;-70
2023/06/29 07:41:18;;;;;;;38.85;20.00;;;;;;;-146.27;88.56;81130.88;5051729;28;20029;-69
2023/06/29 07:44:01;;;;;;;37.25;20.70;;;;;;;-146.27;88.42;81120.84;5051964;28;20083;-70
2023/06/29 07:46:26;;;;;;;35.28;20.80;;;;;;;-146.27;88.09;81128.88;5048926;28;20032;-70
2023/06/29 07:48:53;;;;;;;44.28;22.15;;;;;;;-146.27;88.02;81120.84;5051099;28;20443;-69
2023/06/29 07:51:18;;;;;;;34.58;19.73;;;;;;;-146.27;87.77;81066.63;5051707;28;20041;-68
2023/06/29 07:53:44;;;;;;;33.58;20.40;;;;;;;-146.27;87.84;81118.84;5049517;28;20055;-69
2023/06/29 07:56:10;;;;;;;34.30;20.48;;;;;;;-146.27;87.82;81086.72;5045080;28;20400;-69
2023/06/29 07:58:36;;;;;;;34.92;20.23;;;;;;;-146.27;88.21;81090.72;5045731;28;20493;-69
2023/06/29 08:01:01;;;;;;;39.42;20.40;;;;;;;-146.27;88.15;81030.47;5046999;28;20025;-70
2023/06/29 08:03:27;;;;;;;34.85;20.15;;;;;;;-146.27;88.03;81012.41;5049328;28;20017;-69
2023/06/29 08:05:52;;;;;;;32.13;17.65;;;;;;;-146.27;87.46;80996.34;5042403;28;20404;-69
2023/06/29 08:08:19;;;;;;;32.92;18.45;;;;;;;-146.27;86.89;81014.41;5050310;28;20484;-70
2023/06/29 08:10:45;;;;;;;36.30;18.10;;;;;;;-146.27;86.67;80992.31;5051478;28;20460;-70
2023/06/29 08:13:10;;;;;;;33.58;17.40;;;;;;;-146.27;86.62;80988.31;5048457;28;20108;-70
2023/06/29 08:15:36;;;;;;;29.00;16.77;;;;;;;-146.27;86.45;80990.31;5047140;28;20078;-69
2023/06/29 08:18:01;;;;;;;27.58;16.50;;;;;;;-146.27;86.36;80946.13;5048494;28;20334;-71
2023/06/29 08:20:27;;;;;;;26.20;14.98;;;;;;;-146.27;86.42;80942.13;5050157;28;20115;-70
2023/06/29 08:22:52;;;;;;;28.48;14.35;;;;;;;-146.27;86.68;80982.28;5049273;28;20028;-70
2023/06/29 08:25:19;;;;;;;23.00;14.00;;;;;;;-146.27;86.75;80988.31;5047298;28;20272;-70
2023/06/29 08:27:44;;;;;;;25.48;12.95;;;;;;;-146.27;86.60;80962.22;5048355;28;20025;-70
2023/06/29 08:30:10;;;;;;;24.38;12.52;;;;;;;-146.27;86.43;80970.25;5042444;28;20508;-70
2023/06/29 08:32:36;;;;;;;22.65;11.90;;;;;;;-146.27;86.18;80978.28;5049899;28;20027;-70
2023/06/29 08:35:01;;;;;;;20.17;11.73;;;;;;;-146.27;85.91;80942.13;5050235;28;20236;-71
2023/06/29 08:37:28;;;;;;;21.52;11.18;;;;;;;-146.27;86.13;80940.13;5049051;28;20472;-70
2023/06/29 08:39:54;;;;;;;19.15;11.20;;;;;;;-146.27;86.14;80928.06;5032089;28;20468;-70
2023/06/29 08:42:20;;;;;;;20.48;12.13;;;;;;;-146.27;85.90;80962.22;5049117;28;20039;-71
2023/06/29 08:44:46;;;;;;;17.35;11.10;;;;;;;-146.27;85.87;80962.22;5049268;28;20067;-70
2023/06/29 08:47:11;;;;;;;22.67;12.25;;;;;;;-146.27;85.87;80966.22;5048313;28;20056;-70
2023/06/29 08:49:38;;;;;;;19.70;11.25;;;;;;;-146.27;86.56;81026.47;5049665;28;20041;-70
2023/06/29 08:52:06;;;;;;;25.95;12.32;;;;;;;-146.27;86.58;81016.44;5043078;28;21226;-71
2023/06/29 08:54:32;;;;;;;24.83;11.80;;;;;;;-146.27;86.48;80942.13;5046621;28;20496;-71
2023/06/29 08:57:01;;;;;;;24.52;11.85;;;;;;;-146.27;86.45;81012.41;5043780;28;20040;-70
2023/06/29 08:59:27;;;;;;;19.25;11.57;;;;;;;-146.27;86.56;81016.44;5046998;28;20043;-70
2023/06/29 09:01:54;;;;;;;21.95;11.57;;;;;;;-146.27;86.25;80942.13;5045778;28;20086;-70
2023/06/29 09:04:19;;;;;;;24.75;11.82;;;;;;;-146.27;86.20;80914.00;5046438;28;20032;-69
2023/06/29 09:06:45;;;;;;;22.98;11.43;;;;;;;-146.27;85.86;80918.03;5047910;28;20448;-69
2023/06/29 09:09:10;;;;;;;20.67;11.85;;;;;;;-146.27;85.43;80885.91;5045871;28;20091;-70
2023/06/29 09:11:36;;;;;;;22.88;14.15;;;;;;;-146.27;84.92;80912.00;5039722;28;20028;-70
2023/06/29 09:14:06;;;;;;;21.85;14.30;;;;;;;-146.27;85.18;80897.94;5023465;28;20111;-70
2023/06/29 09:16:34;;;;;;;26.27;16.00;;;;;;;-146.27;85.07;80869.84;5040651;28;20047;-70
2023/06/29 09:19:00;;;;;;;25.92;16.67;;;;;;;-146.27;84.85;80821.63;5048973;28;20027;-70
2023/06/29 09:21:29;;;;;;;25.38;16.23;;;;;;;-146.27;84.25;80817.63;5046182;28;20071;-72
2023/06/29 09:23:58;;;;;;;24.75;14.80;;;;;;;-146.27;84.43;80845.75;5047790;28;20044;-70
2023/06/29 09:26:26;;;;;;;24.42;13.68;;;;;;;-146.27;84.36;80793.53;5048013;28;20495;-70
2023/06/29 09:28:57;;;;;;;23.83;14.60;;;;;;;-146.27;84.04;80725.25;5029431;28;20029;-71
2023/06/29 09:31:22;;;;;;;22.88;14.68;;;;;;;-146.27;82.92;80717.22;5044786;28;20055;-70
2023/06/29 09:33:48;;;;;;;21.98;13.20;;;;;;;-146.27;81.92;80642.94;5042720;28;20540;-70
2023/06/29 09:36:13;;;;;;;25.35;13.98;;;;;;;-146.27;81.46;80630.88;5009441;28;20040;-70
2023/06/29 09:38:39;;;;;;;23.92;12.68;;;;;;;-146.27;81.10;80624.88;5045804;28;20112;-70
2023/06/29 09:41:06;;;;;;;19.52;11.45;;;;;;;-146.27;79.29;80673.06;5048308;28;20429;-70
2023/06/29 09:43:32;;;;;;;22.65;11.07;;;;;;;-146.27;79.27;80669.03;5047513;28;20013;-70
2023/06/29 09:46:08;;;;;;;21.65;10.85;;;;;;;-146.27;79.44;80562.63;5046741;28;20056;-70
2023/06/29 09:48:43;;;;;;;20.10;11.15;;;;;;;-146.27;78.56;80516.44;5027214;28;20036;-69
2023/06/29 09:51:09;;;;;;;22.85;11.35;;;;;;;-146.27;77.54;80576.66;5038501;28;20025;-70
2023/06/29 09:53:34;;;;;;;19.20;10.27;;;;;;;-146.27;77.48;80542.53;5044730;28;20022;-70
2023/06/29 09:56:01;;;;;;;18.55;10.45;;;;;;;-146.27;77.70;80538.53;5036836;28;20423;-70
2023/06/29 09:58:30;;;;;;;18.60;11.10;;;;;;;-146.27;77.78;80568.63;5048394;28;20052;-70
2023/06/29 10:00:58;;;;;;;17.40;10.68;;;;;;;-146.27;78.70;80693.13;5044296;28;20060;-71
2023/06/29 10:03:25;;;;;;;22.45;11.60;;;;;;;-146.27;79.07;80657.00;5046732;28;20127;-70
2023/06/29 10:05:56;;;;;;;16.95;10.35;;;;;;;-146.27;80.08;80711.19;5049554;28;20025;-70
2023/06/29 10:08:23;;;;;;;19.08;11.10;;;;;;;-146.27;79.80;80705.19;5047130;28;20071;-69
2023/06/29 10:10:53;;;;;;;21.20;11.02;;;;;;;-146.27;80.38;80765.41;5049415;28;20449;-69
2023/06/29 10:13:19;;;;;;;16.45;10.43;;;;;;;-146.27;80.36;80709.19;5047737;28;20504;-69
2023/06/29 10:15:47;;;;;;;17.73;10.43;;;;;;;-146.27;80.24;80681.09;5048735;28;20036;-70
2023/06/29 10:18:20;;;;;;;24.30;11.05;;;;;;;-146.27;80.42;80771.44;5042208;28;20039;-70
2023/06/29 10:20:46;;;;;;;19.05;10.55;;;;;;;-146.27;80.84;80677.06;5043667;28;20032;-71
2023/06/29 10:23:15;;;;;;;17.38;10.25;;;;;;;-146.27;79.96;80636.91;5047488;28;20025;-69
2023/06/29 10:25:46;;;;;;;16.23;10.40;;;;;;;-146.27;79.38;80576.66;5044114;28;20108;-70
2023/06/29 10:28:14;;;;;;;19.70;10.80;;;;;;;-146.27;79.08;80470.25;5045689;28;20030;-70
2023/06/29 10:30:47;;;;;;;19.27;10.90;;;;;;;-146.27;78.05;80448.16;5044758;28;20381;-70
2023/06/29 10:33:20;;;;;;;19.80;10.82;;;;;;;-146.27;76.86;80484.31;5026088;28;20041;-70
2023/06/29 10:35:53;;;;;;;18.57;11.33;;;;;;;-146.27;77.02;80404.00;5044184;28;20453;-70
2023/06/29 10:38:19;;;;;;;17.88;10.35;;;;;;;-146.27;76.46;80444.16;5045342;28;20559;-70
2023/06/29 10:40:48;;;;;;;19.60;10.80;;;;;;;-146.27;76.38;80420.06;5050857;28;20095;-71
2023/06/29 10:43:14;;;;;;;18.40;10.55;;;;;;;-146.27;76.54;80464.22;5042850;28;20043;-71
2023/06/29 10:45:40;;;;;;;17.83;11.07;;;;;;;-146.27;76.26;80478.28;5046077;28;20025;-69
2023/06/29 10:48:10;;;;;;;17.05;12.05;;;;;;;-146.27;76.78;80520.44;5044468;28;20040;-71
2023/06/29 10:50:50;;;;;;;21.02;12.90;;;;;;;-146.27;77.83;80576.66;5042340;28;20024;-69
2023/06/29 10:53:17;;;;;;;23.60;12.88;;;;;;;-146.27;77.59;80536.50;5045815;28;20025;-71
2023/06/29 10:55:49;;;;;;;21.45;11.73;;;;;;;-146.27;77.92;80512.41;5049735;28;20021;-70
2023/06/29 10:58:17;;;;;;;21.35;13.40;;;;;;;-146.27;77.34;80442.16;5043869;28;20048;-71